Time;durP1;ratioP1;P1;durP2;ratioP2;P2;SDS_P1;SDS_P2;PMS_P1;PMS_P2;Temp;Humidity;BMP_temperature;BMP_pressure;BME280_temperature;BME280_humidity;BME280_pressure;Samples;Min_cycle;Max_cycle;Signal;HPM_P1;HPM_P2
2021/08/10 00:02:25;;;;;;;7.20;2.72;;;16.30;92.50;;;;;;3542613;40;20174;-67
2021/08/10 00:04:51;;;;;;;5.43;2.47;;;16.30;92.20;;;;;;3542626;40;20483;-69
2021/08/10 00:07:17;;;;;;;4.45;2.40;;;16.30;92.30;;;;;;3542420;40;20424;-68
2021/08/10 00:09:43;;;;;;;4.13;2.28;;;16.20;92.30;;;;;;3542244;40;20132;-68
2021/08/10 00:12:10;;;;;;;3.53;2.28;;;16.20;92.40;;;;;;3542590;40;20022;-67
2021/08/10 00:14:36;;;;;;;2.63;2.10;;;16.20;92.40;;;;;;3542288;40;20034;-68
2021/08/10 00:17:02;;;;;;;4.40;2.63;;;16.30;92.30;;;;;;3542014;40;20038;-68
2021/08/10 00:19:28;;;;;;;4.68;2.35;;;16.20;92.30;;;;;;3542671;40;20027;-68
2021/08/10 00:21:54;;;;;;;4.95;2.53;;;16.20;92.40;;;;;;3541707;40;20825;-68
2021/08/10 00:24:20;;;;;;;2.70;2.08;;;16.20;92.60;;;;;;3542571;40;20030;-68
2021/08/10 00:26:46;;;;;;;2.80;2.45;;;16.20;92.60;;;;;;3541910;40;20630;-68
2021/08/10 00:29:12;;;;;;;3.58;2.50;;;16.20;92.60;;;;;;3541713;40;20124;-68
2021/08/10 00:31:38;;;;;;;5.43;2.67;;;16.20;92.60;;;;;;3542319;40;20026;-67
2021/08/10 00:34:04;;;;;;;3.03;2.50;;;16.20;92.50;;;;;;3549215;40;20039;-69
2021/08/10 00:36:31;;;;;;;4.75;2.42;;;16.20;92.40;;;;;;3549489;40;20034;-67
2021/08/10 00:38:57;;;;;;;2.85;2.17;;;16.20;92.30;;;;;;3540680;40;20038;-66
2021/08/10 00:41:23;;;;;;;6.25;2.47;;;16.20;92.30;;;;;;3539327;40;20316;-68
2021/08/10 00:43:53;;;;;;;4.20;2.60;;;16.20;92.40;;;;;;3540677;40;20379;-66
2021/08/10 00:46:23;;;;;;;3.85;2.50;;;16.20;92.40;;;;;;3540411;40;20046;-70
2021/08/10 00:48:49;;;;;;;2.50;2.17;;;16.20;92.40;;;;;;3540446;40;20441;-70
2021/08/10 00:51:18;;;;;;;4.20;2.83;;;16.20;92.40;;;;;;3540512;40;20074;-70
2021/08/10 00:53:50;;;;;;;2.67;2.47;;;16.20;92.40;;;;;;3539800;40;20031;-68
2021/08/10 00:56:18;;;;;;;3.13;2.45;;;16.20;92.30;;;;;;3540721;40;20113;-67
2021/08/10 00:58:47;;;;;;;3.95;2.25;;;16.20;92.40;;;;;;3540038;40;20034;-67
2021/08/10 01:01:15;;;;;;;3.15;2.58;;;16.20;92.40;;;;;;3539791;40;20031;-68
2021/08/10 01:03:42;;;;;;;3.25;2.40;;;16.20;92.40;;;;;;3541867;40;20256;-68
2021/08/10 01:06:14;;;;;;;3.50;2.65;;;16.20;92.40;;;;;;3540751;40;20407;-68
2021/08/10 01:09:00;;;;;;;4.00;2.83;;;16.20;92.40;;;;;;3549113;40;20057;-67
2021/08/10 01:11:32;;;;;;;6.55;2.90;;;16.20;92.40;;;;;;3538836;40;20070;-68
2021/08/10 01:14:36;;;;;;;2.92;2.63;;;16.20;92.30;;;;;;3540645;40;20066;-68
2021/08/10 01:17:10;;;;;;;3.08;2.40;;;16.20;92.30;;;;;;3533363;40;20062;-68
2021/08/10 01:19:40;;;;;;;3.90;2.63;;;16.20;92.50;;;;;;3540628;40;20046;-69
2021/08/10 01:22:08;;;;;;;3.17;2.42;;;16.20;92.50;;;;;;3545029;40;20662;-68
2021/08/10 01:24:40;;;;;;;6.00;3.03;;;16.20;92.50;;;;;;3540337;40;20058;-67
2021/08/10 01:27:16;;;;;;;4.10;2.50;;;16.20;92.30;;;;;;3539901;40;20039;-68
2021/08/10 01:30:03;;;;;;;3.58;2.67;;;16.20;92.10;;;;;;3547774;40;20046;-68
2021/08/10 01:32:32;;;;;;;4.97;2.60;;;16.10;92.00;;;;;;3540375;40;20321;-67
2021/08/10 01:34:58;;;;;;;3.33;2.33;;;16.10;92.00;;;;;;3540331;40;20396;-67
2021/08/10 01:37:28;;;;;;;5.95;2.85;;;16.00;92.00;;;;;;3540304;40;20301;-68
2021/08/10 01:40:02;;;;;;;4.22;2.70;;;16.00;92.00;;;;;;3539897;40;20128;-68
2021/08/10 01:42:37;;;;;;;3.33;2.72;;;16.00;91.90;;;;;;3539688;40;20494;-67
2021/08/10 01:45:04;;;;;;;4.20;2.70;;;16.00;91.90;;;;;;3540114;40;20026;-68
2021/08/10 01:47:34;;;;;;;10.45;3.33;;;16.00;91.80;;;;;;3539776;40;20034;-68
2021/08/10 01:50:04;;;;;;;6.00;3.20;;;16.00;91.80;;;;;;3540416;40;20522;-68
2021/08/10 01:52:30;;;;;;;4.25;3.22;;;16.10;91.90;;;;;;3539722;40;20042;-68
2021/08/10 01:55:08;;;;;;;5.55;2.90;;;16.10;92.00;;;;;;3548484;40;20085;-66
2021/08/10 01:57:37;;;;;;;3.20;2.60;;;16.10;92.00;;;;;;3539684;40;20061;-70
2021/08/10 02:00:05;;;;;;;4.45;2.72;;;16.10;92.10;;;;;;3538351;40;20033;-70
2021/08/10 02:02:40;;;;;;;5.13;2.75;;;16.10;92.10;;;;;;3540435;40;20150;-68
2021/08/10 02:05:15;;;;;;;5.40;2.65;;;16.10;92.10;;;;;;3538562;40;20027;-70
2021/08/10 02:07:43;;;;;;;6.05;4.07;;;16.20;92.10;;;;;;3540181;40;20031;-67
2021/08/10 02:10:10;;;;;;;6.57;3.10;;;16.20;92.00;;;;;;3540393;40;20026;-68
2021/08/10 02:12:37;;;;;;;4.38;2.72;;;16.20;92.00;;;;;;3539767;40;20112;-68
2021/08/10 02:15:04;;;;;;;5.47;3.33;;;16.20;92.00;;;;;;3548397;40;20030;-68
2021/08/10 02:17:42;;;;;;;4.00;2.72;;;16.20;91.90;;;;;;3548170;40;20031;-70
2021/08/10 02:20:17;;;;;;;2.78;2.40;;;16.20;91.80;;;;;;3539648;40;20121;-71
2021/08/10 02:22:47;;;;;;;7.10;3.22;;;16.20;91.80;;;;;;3547935;40;20030;-69
2021/08/10 02:25:21;;;;;;;3.22;2.92;;;16.20;91.90;;;;;;3534277;40;20429;-78
2021/08/10 02:27:57;;;;;;;7.32;2.80;;;16.20;91.80;;;;;;3539225;40;20088;-70
2021/08/10 02:30:30;;;;;;;4.53;2.92;;;16.10;91.70;;;;;;3538290;40;20043;-70
2021/08/10 02:32:59;;;;;;;3.38;2.75;;;16.10;91.70;;;;;;3547711;40;20042;-67
2021/08/10 02:35:28;;;;;;;5.55;3.20;;;16.10;91.60;;;;;;3539274;40;20074;-66
2021/08/10 02:37:59;;;;;;;3.72;3.10;;;16.00;91.60;;;;;;3540859;40;20035;-67
2021/08/10 02:40:27;;;;;;;4.38;2.70;;;15.90;91.70;;;;;;3546798;40;20019;-67
2021/08/10 02:42:57;;;;;;;4.63;3.00;;;15.90;91.70;;;;;;3538968;40;20630;-67
2021/08/10 02:45:23;;;;;;;4.22;3.10;;;15.90;91.80;;;;;;3539433;40;20042;-67
2021/08/10 02:47:53;;;;;;;4.50;2.90;;;15.80;91.80;;;;;;3537074;40;20022;-67
2021/08/10 02:50:24;;;;;;;5.32;3.10;;;15.80;91.80;;;;;;3545742;40;20058;-66
2021/08/10 02:52:50;;;;;;;6.63;3.08;;;15.70;91.80;;;;;;3546650;40;20086;-67
2021/08/10 02:55:19;;;;;;;4.57;2.92;;;15.70;91.90;;;;;;3538373;40;20037;-67
2021/08/10 02:57:48;;;;;;;6.70;3.05;;;15.70;92.00;;;;;;3540140;40;20408;-68
2021/08/10 03:00:15;;;;;;;2.58;2.33;;;15.70;92.10;;;;;;3546919;40;20061;-67
2021/08/10 03:02:48;;;;;;;3.65;2.80;;;15.70;92.00;;;;;;3539173;40;20569;-66
2021/08/10 03:05:18;;;;;;;4.32;2.97;;;15.70;92.10;;;;;;3539493;40;20043;-69
2021/08/10 03:07:56;;;;;;;4.18;2.95;;;15.80;92.00;;;;;;3540234;40;20051;-70
2021/08/10 03:10:24;;;;;;;3.20;2.67;;;15.80;92.10;;;;;;3541127;40;20066;-69
2021/08/10 03:12:51;;;;;;;5.13;2.72;;;15.80;92.00;;;;;;3540741;40;20455;-70
2021/08/10 03:15:26;;;;;;;6.07;2.75;;;15.80;92.00;;;;;;3540355;40;20713;-70
2021/08/10 03:17:56;;;;;;;4.57;2.80;;;15.80;92.00;;;;;;3540707;40;20046;-70
2021/08/10 03:20:23;;;;;;;5.43;2.55;;;15.80;91.90;;;;;;3540798;40;20042;-70
2021/08/10 03:22:50;;;;;;;4.40;3.00;;;15.80;91.90;;;;;;3541505;40;20042;-69
2021/08/10 03:25:19;;;;;;;8.52;2.97;;;15.80;91.80;;;;;;3548701;40;20045;-70
2021/08/10 03:27:45;;;;;;;2.97;2.67;;;15.80;91.80;;;;;;3549212;40;20065;-70
2021/08/10 03:30:12;;;;;;;4.13;2.50;;;15.80;92.00;;;;;;3548405;40;20335;-69
2021/08/10 03:32:39;;;;;;;4.45;2.90;;;15.80;91.90;;;;;;3540412;40;20070;-69
2021/08/10 03:35:06;;;;;;;3.70;2.53;;;15.70;91.90;;;;;;3548607;40;20034;-70
2021/08/10 03:37:32;;;;;;;6.07;3.05;;;15.70;92.00;;;;;;3538870;40;20401;-69
2021/08/10 03:40:00;;;;;;;3.80;2.85;;;15.60;92.10;;;;;;3548317;40;20046;-70
2021/08/10 03:42:26;;;;;;;5.07;2.63;;;15.70;92.10;;;;;;3538545;40;20046;-69
2021/08/10 03:44:54;;;;;;;3.05;2.40;;;15.70;92.10;;;;;;3541594;40;20050;-70
2021/08/10 03:47:21;;;;;;;4.13;2.60;;;15.60;92.20;;;;;;3539593;40;20046;-69
2021/08/10 03:49:49;;;;;;;5.32;2.47;;;15.60;92.30;;;;;;3540673;40;20112;-70
2021/08/10 03:52:15;;;;;;;5.20;3.00;;;15.60;92.30;;;;;;3541150;40;20035;-70
2021/08/10 03:54:42;;;;;;;3.95;2.72;;;15.60;92.30;;;;;;3540122;40;20124;-70
2021/08/10 03:57:15;;;;;;;5.90;2.35;;;15.60;92.30;;;;;;3540495;40;20041;-70
2021/08/10 03:59:43;;;;;;;3.45;2.42;;;15.60;92.20;;;;;;3540891;40;20082;-70
2021/08/10 04:06:01;;;;;;;5.88;3.00;;;15.60;92.30;;;;;;3539177;40;20077;-70
2021/08/10 04:08:29;;;;;;;3.70;2.30;;;15.60;92.30;;;;;;3540321;40;20157;-70
2021/08/10 04:10:56;;;;;;;4.15;2.45;;;15.50;92.40;;;;;;3540304;40;20038;-70
2021/08/10 04:13:25;;;;;;;3.28;2.67;;;15.60;92.50;;;;;;3547872;40;20680;-70
2021/08/10 04:15:53;;;;;;;4.25;2.70;;;15.70;92.40;;;;;;3547936;40;20071;-70
2021/08/10 04:18:22;;;;;;;3.97;2.72;;;15.70;92.40;;;;;;3530809;40;20082;-70
2021/08/10 04:20:50;;;;;;;5.90;2.45;;;15.80;92.40;;;;;;3539625;40;20050;-70
2021/08/10 04:23:17;;;;;;;3.55;3.08;;;15.80;92.30;;;;;;3541551;40;20038;-70
2021/08/10 04:25:43;;;;;;;7.65;3.17;;;15.90;92.20;;;;;;3539971;40;20399;-69
2021/08/10 04:28:09;;;;;;;7.65;3.10;;;15.90;92.10;;;;;;3540943;40;20062;-70
2021/08/10 04:30:40;;;;;;;4.82;2.90;;;15.90;92.00;;;;;;3548534;40;20039;-70
2021/08/10 04:33:07;;;;;;;5.90;2.58;;;15.90;92.00;;;;;;3540884;40;20073;-70
2021/08/10 04:35:34;;;;;;;4.88;2.83;;;15.90;91.90;;;;;;3546988;40;20459;-70
2021/08/10 04:38:01;;;;;;;3.70;2.75;;;16.00;91.80;;;;;;3542107;40;20379;-70
2021/08/10 04:40:28;;;;;;;4.35;2.78;;;15.90;91.90;;;;;;3540503;40;20085;-70
2021/08/10 04:43:09;;;;;;;3.42;2.85;;;15.90;92.20;;;;;;3541743;40;20053;-70
2021/08/10 04:45:37;;;;;;;5.38;2.28;;;15.90;91.90;;;;;;3548769;40;20332;-70
2021/08/10 04:48:04;;;;;;;5.93;2.80;;;15.90;92.00;;;;;;3539206;40;20042;-70
2021/08/10 04:50:31;;;;;;;5.47;2.90;;;15.90;91.90;;;;;;3539846;40;20039;-70
2021/08/10 04:52:58;;;;;;;3.05;2.50;;;15.90;92.00;;;;;;3540641;40;20316;-69
2021/08/10 04:55:24;;;;;;;6.40;2.80;;;15.90;92.00;;;;;;3539191;40;20043;-70
2021/08/10 04:57:50;;;;;;;8.32;3.05;;;15.90;92.00;;;;;;3534350;40;20078;-70
2021/08/10 05:00:16;;;;;;;3.63;2.40;;;15.90;92.10;;;;;;3540024;40;20467;-70
2021/08/10 05:02:41;;;;;;;4.63;2.67;;;15.90;92.10;;;;;;3540473;40;20519;-70
2021/08/10 05:05:09;;;;;;;4.68;2.88;;;15.90;92.20;;;;;;3539483;40;20055;-70
2021/08/10 05:07:36;;;;;;;5.10;2.85;;;16.00;92.30;;;;;;3540731;40;20030;-70
2021/08/10 05:10:05;;;;;;;5.80;2.90;;;16.00;92.20;;;;;;3547969;40;20332;-70
2021/08/10 05:12:33;;;;;;;3.80;2.67;;;16.00;92.30;;;;;;3548373;40;20042;-70
2021/08/10 05:15:00;;;;;;;4.35;2.97;;;16.00;92.40;;;;;;3540449;40;20650;-70
2021/08/10 05:17:28;;;;;;;3.10;2.70;;;16.10;92.40;;;;;;3540050;40;20038;-70
2021/08/10 05:19:54;;;;;;;2.97;2.63;;;16.10;92.40;;;;;;3540823;40;20050;-70
2021/08/10 05:22:20;;;;;;;5.90;2.88;;;16.20;92.50;;;;;;3540468;40;20381;-70
2021/08/10 05:24:48;;;;;;;3.83;3.13;;;16.20;92.50;;;;;;3540588;40;20030;-70
2021/08/10 05:27:14;;;;;;;3.10;2.47;;;16.20;92.50;;;;;;3548265;40;20279;-70
2021/08/10 05:29:40;;;;;;;4.72;2.85;;;16.30;92.60;;;;;;3547494;40;20042;-70
2021/08/10 05:32:06;;;;;;;4.93;2.83;;;16.30;92.60;;;;;;3540124;40;20474;-70
2021/08/10 05:34:33;;;;;;;5.00;2.92;;;16.40;92.60;;;;;;3539566;40;20049;-70
2021/08/10 05:36:59;;;;;;;3.42;2.67;;;16.40;92.60;;;;;;3540094;40;20609;-70
2021/08/10 05:39:25;;;;;;;3.28;2.63;;;16.50;92.60;;;;;;3547977;40;20042;-71
2021/08/10 05:41:53;;;;;;;5.20;2.88;;;16.50;92.60;;;;;;3547346;40;20042;-70
2021/08/10 05:44:19;;;;;;;3.63;2.72;;;16.60;92.60;;;;;;3539991;40;20035;-70
2021/08/10 05:46:48;;;;;;;4.80;3.13;;;16.70;92.90;;;;;;3539279;40;20730;-70
2021/08/10 05:49:18;;;;;;;3.65;2.67;;;16.80;92.70;;;;;;3532009;40;20038;-70
2021/08/10 05:51:44;;;;;;;7.32;3.10;;;16.90;92.60;;;;;;3539078;40;20038;-70
2021/08/10 05:54:13;;;;;;;5.30;3.10;;;16.90;92.50;;;;;;3539486;40;20038;-70
2021/08/10 05:56:43;;;;;;;5.90;2.80;;;17.00;92.60;;;;;;3539328;40;20042;-70
2021/08/10 05:59:09;;;;;;;4.75;2.90;;;17.10;92.60;;;;;;3547973;40;20034;-70
2021/08/10 06:01:37;;;;;;;5.20;2.95;;;17.10;92.60;;;;;;3548284;40;20026;-69
2021/08/10 06:04:05;;;;;;;3.28;2.70;;;17.20;92.60;;;;;;3539376;40;20038;-70
2021/08/10 06:06:33;;;;;;;4.68;2.55;;;17.30;92.70;;;;;;3540838;40;20117;-69
2021/08/10 06:09:00;;;;;;;5.55;2.80;;;17.40;92.70;;;;;;3540088;40;20027;-69
2021/08/10 06:11:28;;;;;;;3.60;2.90;;;17.50;92.60;;;;;;3539424;40;20038;-69
2021/08/10 06:13:54;;;;;;;3.60;3.05;;;17.60;92.50;;;;;;3539327;40;20027;-68
2021/08/10 06:16:21;;;;;;;8.95;3.03;;;17.80;92.50;;;;;;3539128;40;20069;-69
2021/08/10 06:18:47;;;;;;;4.90;2.70;;;17.90;92.60;;;;;;3540202;40;20022;-69
2021/08/10 06:21:18;;;;;;;4.15;2.58;;;18.10;92.40;;;;;;3538383;40;20321;-69
2021/08/10 06:23:44;;;;;;;4.18;2.58;;;18.30;92.00;;;;;;3539505;40;20046;-69
2021/08/10 06:26:10;;;;;;;4.80;2.47;;;18.40;91.60;;;;;;3547311;40;20599;-68
2021/08/10 06:28:36;;;;;;;2.97;2.28;;;18.60;91.30;;;;;;3547973;40;20120;-69
2021/08/10 06:31:03;;;;;;;8.50;2.30;;;18.80;90.50;;;;;;3538266;40;20061;-69
2021/08/10 06:33:30;;;;;;;2.58;1.98;;;18.90;87.70;;;;;;3547890;40;20034;-70
2021/08/10 06:35:57;;;;;;;4.07;2.45;;;19.10;85.40;;;;;;3548062;40;20034;-70
2021/08/10 06:38:26;;;;;;;2.85;2.17;;;19.20;85.00;;;;;;3538744;40;20038;-70
2021/08/10 06:40:51;;;;;;;2.47;1.92;;;19.30;85.80;;;;;;3538943;40;20037;-69
2021/08/10 06:43:19;;;;;;;4.15;1.70;;;19.60;86.10;;;;;;3539703;40;20626;-66
2021/08/10 06:45:44;;;;;;;4.93;2.10;;;19.70;81.50;;;;;;3547962;40;20041;-67
2021/08/10 06:48:12;;;;;;;5.80;2.25;;;19.80;80.70;;;;;;3537145;40;20050;-67
2021/08/10 06:50:39;;;;;;;4.53;2.38;;;19.80;81.20;;;;;;3538560;40;20804;-66
2021/08/10 06:53:05;;;;;;;2.97;1.90;;;19.90;81.90;;;;;;3539908;40;20026;-67
2021/08/10 06:55:41;;;;;;;3.85;1.90;;;20.00;80.60;;;;;;3538250;40;20042;-67
2021/08/10 06:58:07;;;;;;;3.90;2.17;;;20.00;80.70;;;;;;3547504;40;20066;-68
2021/08/10 07:00:33;;;;;;;6.82;2.40;;;20.00;79.70;;;;;;3539098;40;20097;-67
2021/08/10 07:03:05;;;;;;;3.08;2.00;;;20.10;78.90;;;;;;3539298;40;20499;-67
2021/08/10 07:05:30;;;;;;;2.88;1.80;;;20.10;79.80;;;;;;3547346;40;20078;-68
2021/08/10 07:07:58;;;;;;;4.10;1.95;;;20.20;77.70;;;;;;3539142;40;20413;-70
2021/08/10 07:10:24;;;;;;;4.95;2.42;;;20.20;78.80;;;;;;3540481;40;20042;-69
2021/08/10 07:12:50;;;;;;;5.72;2.08;;;20.20;76.90;;;;;;3538804;40;20022;-69
2021/08/10 07:15:16;;;;;;;7.55;2.75;;;20.20;77.10;;;;;;3538961;40;20129;-67
2021/08/10 07:17:43;;;;;;;6.30;2.10;;;20.10;76.90;;;;;;3547005;40;20836;-69
2021/08/10 07:20:17;;;;;;;2.72;1.92;;;20.10;78.00;;;;;;3547207;40;20042;-68
2021/08/10 07:22:44;;;;;;;7.38;2.25;;;20.00;77.60;;;;;;3538441;40;20027;-70
2021/08/10 07:25:10;;;;;;;4.70;2.33;;;20.00;78.10;;;;;;3538541;40;20066;-68
2021/08/10 07:27:39;;;;;;;3.58;2.35;;;20.10;79.50;;;;;;3539021;40;20038;-69
2021/08/10 07:30:06;;;;;;;6.50;2.35;;;20.20;78.60;;;;;;3539647;40;20026;-69
2021/08/10 07:32:34;;;;;;;7.47;2.45;;;20.20;78.40;;;;;;3538878;40;20044;-68
2021/08/10 07:35:02;;;;;;;3.05;2.28;;;20.30;79.70;;;;;;3538647;40;20087;-68
2021/08/10 07:37:29;;;;;;;2.20;2.00;;;20.30;78.50;;;;;;3547323;40;20048;-68
2021/08/10 07:39:58;;;;;;;2.65;2.15;;;20.30;78.30;;;;;;3538242;40;20824;-68
2021/08/10 07:42:26;;;;;;;4.55;2.40;;;20.30;78.50;;;;;;3546824;40;20038;-67
2021/08/10 07:44:53;;;;;;;2.75;2.00;;;20.40;80.20;;;;;;3538818;40;20120;-67
2021/08/10 07:47:20;;;;;;;6.18;2.33;;;20.40;81.40;;;;;;3538412;40;20038;-66
2021/08/10 07:49:48;;;;;;;5.72;2.10;;;20.40;82.10;;;;;;3537246;40;20038;-68
2021/08/10 07:52:14;;;;;;;3.03;2.35;;;20.50;83.20;;;;;;3539943;40;20058;-68
2021/08/10 07:54:40;;;;;;;4.03;2.40;;;20.60;82.50;;;;;;3540155;40;20075;-68
2021/08/10 07:57:06;;;;;;;6.50;2.35;;;20.60;80.00;;;;;;3539854;40;20093;-68
2021/08/10 07:59:32;;;;;;;4.40;2.30;;;20.70;78.90;;;;;;3547090;40;20038;-68
2021/08/10 08:01:58;;;;;;;4.28;2.60;;;20.60;79.30;;;;;;3548500;40;20102;-67
2021/08/10 08:04:24;;;;;;;4.38;2.70;;;20.70;81.00;;;;;;3547846;40;20050;-68
2021/08/10 08:06:50;;;;;;;4.97;2.00;;;20.70;79.80;;;;;;3548971;40;20363;-68
2021/08/10 08:09:16;;;;;;;3.40;2.17;;;20.70;80.60;;;;;;3540579;40;20042;-68
2021/08/10 08:11:42;;;;;;;2.85;2.42;;;20.80;79.10;;;;;;3540821;40;20046;-68
2021/08/10 08:14:08;;;;;;;6.32;2.42;;;20.90;78.30;;;;;;3549851;40;20307;-68
2021/08/10 08:16:34;;;;;;;2.47;2.00;;;20.90;77.90;;;;;;3549815;40;20042;-67
2021/08/10 08:19:00;;;;;;;3.33;2.10;;;21.00;79.20;;;;;;3541891;40;20416;-67
2021/08/10 08:21:26;;;;;;;3.13;2.00;;;21.10;76.80;;;;;;3548503;40;20650;-68
2021/08/10 08:23:54;;;;;;;3.28;2.33;;;21.10;76.60;;;;;;3538386;40;20041;-66
2021/08/10 08:26:22;;;;;;;3.42;2.35;;;21.10;75.50;;;;;;3539430;40;20106;-67
2021/08/10 08:28:48;;;;;;;2.95;2.30;;;21.20;74.40;;;;;;3538336;40;20035;-67
2021/08/10 08:31:15;;;;;;;5.22;2.05;;;21.20;75.40;;;;;;3543663;40;20126;-68
2021/08/10 08:33:43;;;;;;;6.00;2.13;;;21.30;74.30;;;;;;3539129;40;20049;-68
2021/08/10 08:36:09;;;;;;;4.68;2.17;;;21.30;75.50;;;;;;3538974;40;20022;-67
2021/08/10 08:38:36;;;;;;;4.95;2.40;;;21.30;74.20;;;;;;3546412;40;20580;-67
2021/08/10 08:41:02;;;;;;;4.07;2.58;;;21.30;75.80;;;;;;3547518;40;20043;-68
2021/08/10 08:43:27;;;;;;;4.22;2.47;;;21.30;74.60;;;;;;3541328;40;20638;-68
2021/08/10 08:45:55;;;;;;;6.13;4.15;;;21.30;74.00;;;;;;3539959;40;20034;-69
2021/08/10 08:48:25;;;;;;;5.28;3.63;;;21.30;76.90;;;;;;3540681;40;20037;-68
2021/08/10 08:50:52;;;;;;;5.00;2.95;;;21.20;77.80;;;;;;3540128;40;20051;-67
2021/08/10 08:53:19;;;;;;;3.95;2.55;;;21.30;74.60;;;;;;3548917;40;20045;-69
2021/08/10 08:55:47;;;;;;;5.07;3.08;;;21.30;74.20;;;;;;3547544;40;20492;-68
2021/08/10 08:58:16;;;;;;;9.27;2.80;;;21.30;77.10;;;;;;3540684;40;20053;-69
2021/08/10 09:00:43;;;;;;;4.45;2.65;;;21.40;75.00;;;;;;3548846;40;20635;-67
2021/08/10 09:03:09;;;;;;;7.28;5.07;;;21.50;75.40;;;;;;3538820;40;20097;-69
2021/08/10 09:05:38;;;;;;;7.97;4.60;;;21.50;76.50;;;;;;3539423;40;20057;-67
2021/08/10 09:08:27;;;;;;;4.90;3.33;;;21.50;74.40;;;;;;3546808;40;20042;-68
2021/08/10 09:11:02;;;;;;;9.10;6.30;;;21.70;72.60;;;;;;3548010;40;20058;-68
2021/08/10 09:13:31;;;;;;;5.38;3.70;;;21.80;73.60;;;;;;3539707;40;20038;-68
2021/08/10 09:16:03;;;;;;;6.97;3.80;;;22.10;71.90;;;;;;3539812;40;20297;-67
2021/08/10 09:18:29;;;;;;;8.00;5.18;;;22.20;70.60;;;;;;3548399;40;20046;-68
2021/08/10 09:21:13;;;;;;;7.28;3.53;;;22.30;71.50;;;;;;3539513;40;20109;-68
2021/08/10 09:23:49;;;;;;;13.05;8.15;;;22.40;71.30;;;;;;3539058;40;20639;-68
2021/08/10 09:26:30;;;;;;;7.35;4.03;;;22.50;71.00;;;;;;3539501;40;20049;-68
2021/08/10 09:29:00;;;;;;;4.65;3.55;;;22.50;69.90;;;;;;3539857;40;20038;-67
2021/08/10 09:31:39;;;;;;;4.93;3.55;;;22.60;67.80;;;;;;3539503;40;20045;-66
2021/08/10 09:34:16;;;;;;;7.30;3.92;;;22.70;67.40;;;;;;3548901;40;20030;-67
2021/08/10 09:36:42;;;;;;;6.32;2.65;;;22.70;69.50;;;;;;3532064;40;20428;-70
2021/08/10 09:39:08;;;;;;;5.93;2.90;;;22.80;68.20;;;;;;3541530;40;20417;-68
2021/08/10 09:41:34;;;;;;;4.78;2.65;;;22.80;68.60;;;;;;3539849;40;20038;-68
2021/08/10 09:44:14;;;;;;;5.53;3.20;;;22.90;68.60;;;;;;3547894;40;20435;-67
2021/08/10 09:46:51;;;;;;;5.47;2.67;;;22.90;67.80;;;;;;3539915;40;20042;-67
2021/08/10 09:49:18;;;;;;;7.82;2.90;;;22.90;68.00;;;;;;3548052;40;20042;-68
2021/08/10 09:51:49;;;;;;;5.10;2.10;;;23.00;69.70;;;;;;3547240;40;20042;-68
2021/08/10 09:54:16;;;;;;;4.03;2.72;;;23.10;66.60;;;;;;3531258;40;20026;-70
2021/08/10 09:56:50;;;;;;;3.17;2.30;;;23.10;66.80;;;;;;3540148;40;20344;-67
2021/08/10 09:59:41;;;;;;;5.28;2.90;;;23.10;67.40;;;;;;3540112;40;20081;-68
2021/08/10 10:02:18;;;;;;;4.40;2.67;;;23.10;69.70;;;;;;3548337;40;20043;-69
2021/08/10 10:05:03;;;;;;;6.43;2.25;;;23.20;69.80;;;;;;3545038;40;20669;-68
2021/08/10 10:07:29;;;;;;;4.97;2.15;;;23.20;66.80;;;;;;3543035;40;20078;-69
2021/08/10 10:10:00;;;;;;;4.90;2.30;;;23.10;66.40;;;;;;3541237;40;20034;-69
2021/08/10 10:12:32;;;;;;;7.03;2.15;;;22.90;68.20;;;;;;3540377;40;20054;-68
2021/08/10 10:14:59;;;;;;;11.43;6.35;;;22.80;68.60;;;;;;3540136;40;20030;-68
2021/08/10 10:17:29;;;;;;;7.10;3.42;;;22.70;70.40;;;;;;3541675;40;20409;-68
2021/08/10 10:19:55;;;;;;;11.77;7.78;;;22.60;70.90;;;;;;3541394;40;20038;-67
2021/08/10 10:22:24;;;;;;;6.88;2.58;;;22.60;73.90;;;;;;3541611;40;20038;-67
2021/08/10 10:24:56;;;;;;;3.88;1.90;;;22.60;70.80;;;;;;3540738;40;20043;-67
2021/08/10 10:27:23;;;;;;;2.45;2.03;;;22.70;67.80;;;;;;3541071;40;20042;-67
2021/08/10 10:29:54;;;;;;;6.43;3.30;;;22.70;68.10;;;;;;3539699;40;20023;-68
2021/08/10 10:32:22;;;;;;;4.90;1.70;;;22.70;69.60;;;;;;3541433;40;20507;-68
2021/08/10 10:34:48;;;;;;;5.00;2.13;;;22.80;66.40;;;;;;3541929;40;20048;-68
2021/08/10 10:37:21;;;;;;;5.13;2.25;;;22.70;66.10;;;;;;3541123;40;20751;-68
2021/08/10 10:39:51;;;;;;;4.45;2.28;;;22.70;66.10;;;;;;3540886;40;20081;-68
2021/08/10 10:42:17;;;;;;;4.18;1.58;;;22.60;64.80;;;;;;3541509;40;20133;-67
2021/08/10 10:44:51;;;;;;;3.22;1.90;;;22.50;66.00;;;;;;3540928;40;20034;-67
2021/08/10 10:47:20;;;;;;;3.50;1.73;;;22.30;67.70;;;;;;3541167;40;20030;-68
2021/08/10 10:50:07;;;;;;;2.63;1.48;;;22.20;70.30;;;;;;3540848;40;20034;-69
2021/08/10 10:52:34;;;;;;;;;;;22.10;73.00;;;;;;3541295;40;20041;-69
2021/08/10 10:55:01;;;;;;;2.40;1.52;;;22.00;75.90;;;;;;3539631;40;20244;-68
2021/08/10 10:57:32;;;;;;;6.38;1.85;;;22.00;77.70;;;;;;3540715;40;20043;-67
2021/08/10 11:00:04;;;;;;;3.83;2.00;;;22.20;73.80;;;;;;3540722;40;20042;-68
2021/08/10 11:02:33;;;;;;;4.60;1.70;;;22.50;69.30;;;;;;3540098;40;20030;-68
2021/08/10 11:07:53;;;;;;;8.32;2.08;;;22.90;66.50;;;;;;3540301;40;20030;-68
2021/08/10 11:10:42;;;;;;;3.88;1.85;;;23.00;64.30;;;;;;3539091;40;20084;-68
2021/08/10 11:13:17;;;;;;;4.68;2.10;;;23.00;66.00;;;;;;3540756;40;20125;-69
2021/08/10 11:15:45;;;;;;;5.90;2.90;;;23.10;64.50;;;;;;3540715;40;20719;-70
2021/08/10 11:18:11;;;;;;;7.53;4.63;;;23.20;65.30;;;;;;3541420;40;20045;-69
2021/08/10 11:20:45;;;;;;;4.18;2.38;;;23.20;65.00;;;;;;3540560;40;20034;-70
2021/08/10 11:23:20;;;;;;;11.93;6.40;;;23.30;62.20;;;;;;3541042;40;20043;-70
2021/08/10 11:26:14;;;;;;;4.38;2.10;;;23.30;64.00;;;;;;3539609;40;20089;-68
2021/08/10 11:28:52;;;;;;;4.25;2.85;;;23.30;60.50;;;;;;3541669;40;20031;-69
2021/08/10 11:31:32;;;;;;;4.72;1.90;;;23.40;61.30;;;;;;3541620;40;20085;-68
2021/08/10 11:33:58;;;;;;;6.28;3.28;;;23.60;61.00;;;;;;3540210;40;20114;-68
2021/08/10 11:36:24;;;;;;;4.75;2.25;;;23.80;60.60;;;;;;3540158;40;20428;-69
2021/08/10 11:38:53;;;;;;;8.07;4.03;;;23.90;58.70;;;;;;3541787;40;20045;-70
2021/08/10 11:41:27;;;;;;;4.65;2.88;;;23.80;60.00;;;;;;3541660;40;20120;-69
2021/08/10 11:43:58;;;;;;;4.30;2.50;;;23.80;59.60;;;;;;3541774;40;20041;-70
2021/08/10 11:46:43;;;;;;;5.05;1.75;;;23.90;61.00;;;;;;3541546;40;20042;-69
2021/08/10 11:49:14;;;;;;;3.58;1.75;;;24.00;57.90;;;;;;3541406;40;20038;-69
2021/08/10 11:51:44;;;;;;;3.33;1.60;;;24.00;58.20;;;;;;3541910;40;20026;-69
2021/08/10 11:54:18;;;;;;;3.92;1.98;;;24.10;58.70;;;;;;3539769;40;20030;-69
2021/08/10 11:56:54;;;;;;;7.72;3.20;;;24.20;58.90;;;;;;3541367;40;20050;-69
2021/08/10 11:59:25;;;;;;;4.60;1.63;;;24.30;58.20;;;;;;3541674;40;20037;-68
2021/08/10 12:01:52;;;;;;;2.30;1.58;;;24.40;57.40;;;;;;3541366;40;20034;-69
2021/08/10 12:04:20;;;;;;;4.32;1.98;;;24.40;56.80;;;;;;3540998;40;20038;-69
2021/08/10 12:06:54;;;;;;;3.53;1.52;;;24.40;57.20;;;;;;3541688;40;20038;-68
2021/08/10 12:09:39;;;;;;;5.00;2.22;;;24.40;57.30;;;;;;3541095;40;20030;-69
2021/08/10 12:12:07;;;;;;;3.38;2.33;;;24.40;57.20;;;;;;3540899;40;20038;-69
2021/08/10 12:14:34;;;;;;;4.10;2.47;;;24.30;59.40;;;;;;3541707;40;20052;-69
2021/08/10 12:17:11;;;;;;;5.65;1.70;;;24.30;56.90;;;;;;3541294;40;20452;-68
2021/08/10 12:19:45;;;;;;;4.45;2.60;;;24.30;58.30;;;;;;3541705;40;20085;-69
2021/08/10 12:22:20;;;;;;;3.47;1.27;;;24.30;58.20;;;;;;3541890;40;20147;-69
2021/08/10 12:24:48;;;;;;;2.65;1.75;;;24.30;55.90;;;;;;3542395;40;20046;-67
2021/08/10 12:27:16;;;;;;;3.13;1.60;;;24.40;57.30;;;;;;3541311;40;20312;-67
2021/08/10 12:29:49;;;;;;;4.93;1.40;;;24.40;54.60;;;;;;3541171;40;20038;-67
2021/08/10 12:32:25;;;;;;;4.40;2.10;;;24.30;56.70;;;;;;3542261;40;20357;-70
2021/08/10 12:34:51;;;;;;;2.05;1.70;;;24.20;56.50;;;;;;3541341;40;20220;-69
2021/08/10 12:37:26;;;;;;;5.72;1.90;;;24.20;57.70;;;;;;3542888;40;20776;-68
2021/08/10 12:39:52;;;;;;;3.70;1.65;;;24.20;58.00;;;;;;3542266;40;20042;-69
2021/08/10 12:42:18;;;;;;;5.35;1.65;;;24.30;56.50;;;;;;3542885;40;20018;-70
2021/08/10 12:44:49;;;;;;;3.20;1.10;;;24.20;56.50;;;;;;3542224;40;20586;-69
2021/08/10 12:47:16;;;;;;;2.50;1.17;;;24.30;58.50;;;;;;3541356;40;20042;-69
2021/08/10 12:49:43;;;;;;;3.72;1.27;;;24.30;57.10;;;;;;3541842;40;20029;-69
2021/08/10 12:52:16;;;;;;;4.63;1.60;;;24.40;56.60;;;;;;3541317;40;20104;-68
2021/08/10 12:54:51;;;;;;;7.00;3.60;;;24.40;55.70;;;;;;3539814;40;20043;-70
2021/08/10 12:57:22;;;;;;;2.40;1.40;;;24.30;58.70;;;;;;3540993;40;20102;-69
2021/08/10 12:59:51;;;;;;;3.85;1.88;;;24.40;56.70;;;;;;3540948;40;20034;-73
2021/08/10 13:02:37;;;;;;;4.15;1.90;;;24.40;56.70;;;;;;3541504;40;20018;-68
2021/08/10 13:05:08;;;;;;;4.65;1.48;;;24.30;57.20;;;;;;3540869;40;20053;-69
2021/08/10 13:07:35;;;;;;;4.45;1.58;;;24.30;57.40;;;;;;3539646;40;20023;-71